Time;durP1;ratioP1;P1;durP2;ratioP2;P2;SDS_P1;SDS_P2;PMS_P1;PMS_P2;Temp;Humidity;BMP_temperature;BMP_pressure;BME280_temperature;BME280_humidity;BME280_pressure;Samples;Min_cycle;Max_cycle;Signal;HPM_P1;HPM_P2
2021/08/23 00:02:04;;;;;;;1.55;1.20;;;;;;;13.38;100.00;101383.97;4970767;28;20415;-86
2021/08/23 00:04:37;;;;;;;1.20;0.90;;;;;;;13.44;100.00;101380.09;4970958;28;20057;-86
2021/08/23 00:07:10;;;;;;;2.63;1.25;;;;;;;13.37;100.00;101382.31;4973137;28;20073;-85
2021/08/23 00:09:43;;;;;;;1.88;1.27;;;;;;;13.37;100.00;101374.13;4972124;28;20054;-86
2021/08/23 00:12:16;;;;;;;1.30;1.00;;;;;;;13.44;100.00;101380.09;4978121;28;20046;-85
2021/08/23 00:14:51;;;;;;;2.47;1.10;;;;;;;13.40;100.00;101370.00;4984021;28;20047;-85
2021/08/23 00:17:24;;;;;;;2.08;1.10;;;;;;;13.57;100.00;101384.09;4969274;28;20054;-86
2021/08/23 00:19:57;;;;;;;1.52;1.10;;;;;;;13.72;100.00;101374.97;4968401;28;20058;-85
2021/08/23 00:22:32;;;;;;;2.00;1.15;;;;;;;13.86;100.00;101372.44;4967764;28;20066;-85
2021/08/23 00:25:06;;;;;;;1.90;1.13;;;;;;;13.88;100.00;101375.72;4975689;28;20066;-86
2021/08/23 00:27:39;;;;;;;1.10;1.00;;;;;;;13.91;100.00;101377.06;4973601;28;20061;-85
2021/08/23 00:30:16;;;;;;;1.70;1.00;;;;;;;13.83;100.00;101366.72;4970593;28;20077;-85
2021/08/23 00:32:45;;;;;;;1.67;1.00;;;;;;;13.95;100.00;101367.97;4971394;28;20058;-86
2021/08/23 00:35:18;;;;;;;1.42;0.93;;;;;;;13.95;100.00;101367.97;4975942;28;20046;-86
2021/08/23 00:37:53;;;;;;;1.17;0.90;;;;;;;13.88;100.00;101366.66;4973901;28;20050;-85
2021/08/23 00:40:21;;;;;;;2.05;0.80;;;;;;;13.69;100.00;101366.56;4976872;28;20054;-85
2021/08/23 00:42:50;;;;;;;1.15;0.80;;;;;;;13.88;100.00;101374.88;4971392;28;20059;-85
2021/08/23 00:45:25;;;;;;;1.00;0.90;;;;;;;13.98;100.00;101377.53;4975728;28;20057;-85
2021/08/23 00:47:54;;;;;;;3.03;0.90;;;;;;;13.85;100.00;101369.97;4964017;28;20053;-85
2021/08/23 00:50:27;;;;;;;2.30;0.70;;;;;;;13.72;100.00;101363.25;4975553;28;20047;-86
2021/08/23 00:52:55;;;;;;;1.30;0.82;;;;;;;13.94;100.00;101366.34;4969911;28;20054;-86
2021/08/23 00:55:24;;;;;;;1.05;0.80;;;;;;;13.87;100.00;101370.53;4984128;28;20050;-86
2021/08/23 00:57:52;;;;;;;0.98;0.70;;;;;;;13.79;100.00;101374.66;4979689;28;20065;-85
2021/08/23 01:00:27;;;;;;;0.90;0.70;;;;;;;13.72;100.00;101379.66;4976334;28;20050;-85
2021/08/23 01:03:00;;;;;;;1.08;0.57;;;;;;;13.83;100.00;101381.22;4969834;28;20579;-85
2021/08/23 01:05:35;;;;;;;4.05;0.80;;;;;;;13.69;100.00;101382.97;4970985;28;20061;-85
2021/08/23 01:08:14;;;;;;;1.58;0.65;;;;;;;13.72;100.00;101385.13;4971135;28;20062;-85
2021/08/23 01:10:49;;;;;;;1.63;0.85;;;;;;;13.72;100.00;101383.19;4959276;28;20420;-85
2021/08/23 01:13:28;;;;;;;2.50;0.80;;;;;;;13.61;100.00;101379.69;4987635;28;20059;-85
2021/08/23 01:16:03;;;;;;;2.45;0.80;;;;;;;13.81;100.00;101377.13;4970193;28;20049;-85
2021/08/23 01:18:32;;;;;;;1.63;0.73;;;;;;;13.78;100.00;101382.06;4977966;28;20114;-85
2021/08/23 01:21:08;;;;;;;1.27;0.65;;;;;;;13.67;100.00;101388.72;4976527;28;20491;-84
2021/08/23 01:23:45;;;;;;;0.95;0.80;;;;;;;13.80;100.00;101383.72;4967188;28;20062;-85
2021/08/23 01:26:25;;;;;;;1.38;0.55;;;;;;;13.42;100.00;101378.72;4972625;28;20487;-85
2021/08/23 01:29:02;;;;;;;0.60;0.60;;;;;;;13.65;100.00;101385.44;4965047;28;20054;-86
2021/08/23 01:31:41;;;;;;;;;;;;;;;13.70;100.00;101385.41;4968453;28;20054;-85
2021/08/23 01:34:13;;;;;;;0.73;0.55;;;;;;;13.64;100.00;101389.25;4972975;28;19922;-85
2021/08/23 01:36:46;;;;;;;0.70;0.50;;;;;;;13.59;100.00;101375.63;4983763;28;20062;-85
2021/08/23 01:39:20;;;;;;;0.77;0.47;;;;;;;13.67;98.39;101385.97;4999419;28;20051;-86
2021/08/23 01:41:49;;;;;;;0.57;0.50;;;;;;;13.39;100.00;101382.03;4971230;28;20051;-85
2021/08/23 01:44:22;;;;;;;0.77;0.40;;;;;;;13.65;99.82;101390.09;4998130;28;20502;-84
2021/08/23 01:46:56;;;;;;;0.98;0.50;;;;;;;13.42;100.00;101395.13;4973959;28;20050;-85
2021/08/23 01:49:30;;;;;;;0.50;0.50;;;;;;;13.43;100.00;101388.56;4975660;28;20077;-86
2021/08/23 01:51:58;;;;;;;0.70;0.43;;;;;;;13.33;100.00;101394.88;4969271;28;20051;-85
2021/08/23 01:54:32;;;;;;;1.77;0.65;;;;;;;13.49;100.00;101394.81;4972104;28;20409;-86
2021/08/23 01:57:05;;;;;;;0.40;0.40;;;;;;;13.64;99.82;101396.66;4972374;28;20058;-85
2021/08/23 01:59:38;;;;;;;0.55;0.50;;;;;;;13.35;100.00;101391.88;4976101;28;20054;-85
2021/08/23 02:02:11;;;;;;;1.23;0.55;;;;;;;13.47;100.00;101395.09;4969813;28;20055;-85
2021/08/23 02:04:46;;;;;;;0.52;0.50;;;;;;;13.43;100.00;101394.84;4982067;28;20388;-86
2021/08/23 02:07:19;;;;;;;1.10;0.47;;;;;;;13.46;100.00;101400.88;4980178;28;20057;-85
2021/08/23 02:09:52;;;;;;;1.42;0.50;;;;;;;13.52;100.00;101397.00;4985820;28;20062;-86
2021/08/23 02:12:25;;;;;;;0.60;0.50;;;;;;;13.35;100.00;101400.91;4969832;28;20058;-86
2021/08/23 02:14:58;;;;;;;0.80;0.60;;;;;;;13.54;100.00;101398.34;4975009;28;20050;-85
2021/08/23 02:17:32;;;;;;;1.38;0.50;;;;;;;13.39;100.00;101395.69;4974846;28;20435;-85
2021/08/23 02:20:08;;;;;;;0.45;0.45;;;;;;;13.51;100.00;101411.78;4978097;28;20055;-85
2021/08/23 02:22:40;;;;;;;0.57;0.50;;;;;;;13.41;100.00;101404.47;4976288;28;20419;-85
2021/08/23 02:25:10;;;;;;;0.80;0.50;;;;;;;13.52;100.00;101411.50;4977071;28;20046;-85
2021/08/23 02:27:44;;;;;;;0.93;0.50;;;;;;;13.45;100.00;101416.47;5000991;28;20047;-85
2021/08/23 02:30:17;;;;;;;0.70;0.60;;;;;;;13.46;100.00;101398.94;4983473;28;20880;-85
2021/08/23 02:32:51;;;;;;;0.70;0.65;;;;;;;13.49;100.00;101414.81;4970932;28;20046;-85
2021/08/23 02:35:21;;;;;;;1.75;0.50;;;;;;;13.61;100.00;101412.53;4988196;28;20058;-85
2021/08/23 02:37:54;;;;;;;1.75;0.50;;;;;;;13.60;100.00;101415.53;4974260;28;20057;-86
2021/08/23 02:40:27;;;;;;;2.53;0.50;;;;;;;13.45;100.00;101419.19;4976760;28;20605;-85
2021/08/23 02:42:56;;;;;;;1.65;0.60;;;;;;;12.95;100.00;101369.88;4975450;28;20070;-86
2021/08/23 02:45:29;;;;;;;0.70;0.50;;;;;;;13.52;100.00;101425.16;4977378;28;20404;-86
2021/08/23 02:48:02;;;;;;;0.40;0.40;;;;;;;13.55;100.00;101432.00;4973985;28;20065;-85
2021/08/23 02:50:37;;;;;;;0.98;0.50;;;;;;;13.65;100.00;101425.66;4981609;28;20050;-85
2021/08/23 02:53:10;;;;;;;0.80;0.52;;;;;;;13.53;100.00;101421.31;4973161;28;20046;-85
2021/08/23 02:55:43;;;;;;;1.63;0.68;;;;;;;13.54;100.00;101430.34;4969174;28;20062;-85
2021/08/23 02:58:17;;;;;;;1.23;0.55;;;;;;;13.57;100.00;101430.59;4969352;28;20596;-86
2021/08/23 03:00:45;;;;;;;2.25;0.47;;;;;;;13.53;100.00;101432.25;4974809;28;20051;-86
2021/08/23 03:03:24;;;;;;;1.88;0.60;;;;;;;13.58;100.00;101434.16;4974553;28;20050;-85
2021/08/23 03:05:55;;;;;;;0.40;0.40;;;;;;;13.44;100.00;101429.28;4974820;28;20495;-86
2021/08/23 03:08:28;;;;;;;0.60;0.50;;;;;;;13.37;100.00;101425.25;4974506;28;20495;-87
2021/08/23 03:11:06;;;;;;;0.55;0.40;;;;;;;13.39;100.00;101428.50;4973960;28;20054;-85
2021/08/23 03:13:41;;;;;;;1.55;0.63;;;;;;;13.35;100.00;101432.88;4967839;28;20057;-86
2021/08/23 03:16:14;;;;;;;1.20;0.70;;;;;;;13.39;100.00;101431.25;4973997;28;20039;-86
2021/08/23 03:18:47;;;;;;;1.45;0.60;;;;;;;13.29;100.00;101440.28;4983739;28;20066;-85
2021/08/23 03:21:22;;;;;;;0.40;0.40;;;;;;;13.32;100.00;101442.44;4970685;28;20054;-86
2021/08/23 03:23:55;;;;;;;1.08;0.63;;;;;;;13.32;100.00;101436.16;4973959;28;20054;-86
2021/08/23 03:26:28;;;;;;;1.05;0.60;;;;;;;13.24;100.00;101426.63;4973663;28;20427;-86
2021/08/23 03:29:01;;;;;;;1.20;0.60;;;;;;;13.30;100.00;101443.81;4977119;28;20046;-86
2021/08/23 03:31:35;;;;;;;0.60;0.50;;;;;;;13.23;100.00;101447.69;4974522;28;20632;-86
2021/08/23 03:34:06;;;;;;;0.57;0.55;;;;;;;13.26;100.00;101454.50;4976750;28;20047;-86
2021/08/23 03:36:42;;;;;;;1.67;0.63;;;;;;;13.13;100.00;101452.34;4986032;28;20054;-86
2021/08/23 03:39:16;;;;;;;0.73;0.50;;;;;;;13.10;100.00;101445.53;4978532;28;20046;-86
2021/08/23 03:41:49;;;;;;;1.10;0.60;;;;;;;13.15;100.00;101456.44;4981936;28;20050;-86
2021/08/23 03:44:22;;;;;;;2.03;0.75;;;;;;;12.91;100.00;101451.59;4974436;28;20049;-86
2021/08/23 03:46:56;;;;;;;1.80;0.70;;;;;;;12.90;100.00;101455.41;4973361;28;20051;-85
2021/08/23 03:49:29;;;;;;;1.10;0.50;;;;;;;12.87;100.00;101449.69;4971713;28;20066;-86
2021/08/23 03:52:04;;;;;;;3.00;0.60;;;;;;;13.00;100.00;101456.50;4964272;28;20051;-85
2021/08/23 03:54:37;;;;;;;1.20;0.63;;;;;;;13.01;100.00;101463.59;4973076;28;20581;-85
2021/08/23 03:57:10;;;;;;;2.17;0.75;;;;;;;12.99;100.00;101471.25;4966074;28;20046;-86
2021/08/23 03:59:43;;;;;;;1.17;0.60;;;;;;;13.00;100.00;101462.78;4981779;28;20065;-86
2021/08/23 04:02:17;;;;;;;2.75;0.70;;;;;;;13.03;100.00;101472.34;4974812;28;20587;-86
2021/08/23 04:04:45;;;;;;;0.73;0.70;;;;;;;12.80;100.00;101468.28;4983942;28;20058;-87
2021/08/23 04:07:19;;;;;;;1.17;0.70;;;;;;;12.87;100.00;101474.25;4971924;28;20047;-86
2021/08/23 04:09:48;;;;;;;2.42;0.70;;;;;;;13.01;100.00;101475.34;4968039;28;20055;-85
2021/08/23 04:12:16;;;;;;;3.10;0.77;;;;;;;13.06;100.00;101472.63;4976405;28;20058;-86
2021/08/23 04:14:44;;;;;;;1.55;0.70;;;;;;;12.91;100.00;101472.63;4974383;28;20055;-85
2021/08/23 04:17:13;;;;;;;1.70;0.70;;;;;;;12.96;100.00;101480.00;4979430;28;20486;-86
2021/08/23 04:19:41;;;;;;;1.10;0.77;;;;;;;13.05;100.00;101484.63;4975227;28;20066;-85
2021/08/23 04:22:14;;;;;;;2.42;0.85;;;;;;;13.03;100.00;101488.72;4973254;28;20062;-86
2021/08/23 04:24:44;;;;;;;3.00;0.90;;;;;;;13.19;100.00;101497.72;4980072;28;20053;-85
2021/08/23 04:27:17;;;;;;;0.70;0.60;;;;;;;13.07;100.00;101479.69;4979651;28;20042;-86
2021/08/23 04:29:50;;;;;;;2.70;0.68;;;;;;;13.12;100.00;101492.53;4975976;28;20055;-86
2021/08/23 04:32:24;;;;;;;2.55;0.80;;;;;;;13.18;100.00;101507.00;4981608;28;20050;-84
2021/08/23 04:34:57;;;;;;;2.35;0.85;;;;;;;13.02;100.00;101507.06;4978732;28;20058;-86
2021/08/23 04:37:31;;;;;;;1.38;0.80;;;;;;;13.14;100.00;101503.19;4972214;28;20493;-86
2021/08/23 04:40:00;;;;;;;2.15;0.80;;;;;;;13.14;100.00;101508.66;4985894;28;20057;-85
2021/08/23 04:42:33;;;;;;;2.28;0.80;;;;;;;13.24;100.00;101503.16;4974334;28;20046;-86
2021/08/23 04:45:07;;;;;;;1.75;0.70;;;;;;;13.29;100.00;101513.28;4973392;28;20435;-86
2021/08/23 04:47:35;;;;;;;0.95;0.68;;;;;;;13.16;100.00;101523.69;4972167;28;20058;-85
2021/08/23 04:50:04;;;;;;;1.00;0.75;;;;;;;13.15;100.00;101515.78;4974492;28;20046;-85
2021/08/23 04:52:41;;;;;;;2.45;0.80;;;;;;;13.20;100.00;101526.66;4972619;28;20415;-86
2021/08/23 04:55:17;;;;;;;1.75;0.90;;;;;;;13.18;100.00;101516.03;4990431;28;20751;-86
2021/08/23 04:57:52;;;;;;;2.42;0.80;;;;;;;13.13;100.00;101520.69;4975563;28;20053;-85
2021/08/23 05:00:26;;;;;;;0.70;0.70;;;;;;;13.15;100.00;101535.72;4983561;28;20476;-86
2021/08/23 05:02:59;;;;;;;1.73;0.80;;;;;;;13.35;100.00;101539.50;4973235;28;20414;-86
2021/08/23 05:05:32;;;;;;;1.52;0.75;;;;;;;13.32;100.00;101540.84;4973442;28;20051;-86
2021/08/23 05:08:06;;;;;;;1.35;0.60;;;;;;;13.33;100.00;101541.69;4971650;28;20061;-85
2021/08/23 05:10:43;;;;;;;1.92;0.80;;;;;;;13.44;100.00;101538.66;4973435;28;20043;-85
2021/08/23 05:13:17;;;;;;;;;;;;;;;13.61;100.00;101543.78;4973276;28;20038;-86
2021/08/23 05:15:45;;;;;;;1.77;0.60;;;;;;;13.55;100.00;101552.31;4961337;28;19922;-85
2021/08/23 05:18:18;;;;;;;2.75;0.70;;;;;;;13.75;100.00;101554.16;4972810;28;20050;-85
2021/08/23 05:20:52;;;;;;;2.30;0.80;;;;;;;13.69;100.00;101541.59;4962722;28;20054;-86
2021/08/23 05:23:20;;;;;;;2.25;0.82;;;;;;;13.73;100.00;101559.09;4972844;28;20055;-86
2021/08/23 05:25:54;;;;;;;1.20;0.70;;;;;;;13.97;100.00;101564.72;4986213;28;20050;-86
2021/08/23 05:28:22;;;;;;;1.67;0.73;;;;;;;13.97;100.00;101563.91;4984892;28;20503;-85
2021/08/23 05:30:51;;;;;;;2.28;0.70;;;;;;;14.08;100.00;101576.44;4971745;28;20052;-85
2021/08/23 05:33:24;;;;;;;1.48;0.70;;;;;;;14.08;100.00;101570.97;4979921;28;20058;-86
2021/08/23 05:35:57;;;;;;;2.10;0.70;;;;;;;14.38;100.00;101574.66;4982665;28;20400;-86
2021/08/23 05:38:31;;;;;;;0.70;0.60;;;;;;;14.32;100.00;101573.84;4975650;28;20062;-86
2021/08/23 05:41:06;;;;;;;1.25;0.68;;;;;;;14.44;100.00;101584.44;4977738;28;20061;-86
2021/08/23 05:43:40;;;;;;;0.90;0.60;;;;;;;14.37;100.00;101582.03;4970100;28;20053;-86
2021/08/23 05:46:38;;;;;;;2.75;0.80;;;;;;;14.38;100.00;101575.44;4975976;28;20519;-86
2021/08/23 05:49:11;;;;;;;1.30;0.70;;;;;;;14.39;100.00;101579.00;4972206;28;20063;-86
2021/08/23 05:51:45;;;;;;;1.77;0.73;;;;;;;14.39;100.00;101579.84;4980960;28;20050;-86
2021/08/23 05:54:13;;;;;;;1.63;0.70;;;;;;;14.58;100.00;101587.38;4975465;28;20065;-87
2021/08/23 05:56:48;;;;;;;1.50;0.70;;;;;;;14.52;100.00;101580.31;4975145;28;20055;-86
2021/08/23 05:59:17;;;;;;;1.58;0.63;;;;;;;14.69;100.00;101588.16;4974684;28;20043;-86
2021/08/23 06:01:45;;;;;;;0.95;0.68;;;;;;;14.55;100.00;101587.94;4974829;28;20484;-85
2021/08/23 06:04:19;;;;;;;1.55;0.70;;;;;;;14.58;100.00;101596.41;4976320;28;20480;-85
2021/08/23 06:06:53;;;;;;;1.38;0.60;;;;;;;14.68;100.00;101595.56;4976069;28;20043;-85
2021/08/23 06:09:26;;;;;;;1.10;0.60;;;;;;;14.82;99.29;101601.22;4974935;28;20046;-85
2021/08/23 06:11:56;;;;;;;1.20;0.65;;;;;;;14.72;99.80;101602.09;4974813;28;20055;-85
2021/08/23 06:14:29;;;;;;;1.88;0.70;;;;;;;14.76;100.00;101600.44;4976133;28;20047;-85
2021/08/23 06:17:05;;;;;;;1.13;0.60;;;;;;;14.89;99.61;101595.41;4972148;28;20062;-86
2021/08/23 06:19:38;;;;;;;2.58;0.63;;;;;;;14.88;99.16;101597.31;4974536;28;20415;-86
2021/08/23 06:22:20;;;;;;;1.38;0.70;;;;;;;14.94;98.50;101607.13;4965556;28;20510;-85
2021/08/23 06:24:50;;;;;;;1.20;0.60;;;;;;;15.05;98.42;101610.63;4970569;28;20061;-86
2021/08/23 06:27:25;;;;;;;1.30;0.60;;;;;;;14.93;99.61;101601.94;4975843;28;20510;-85
2021/08/23 06:29:58;;;;;;;0.80;0.60;;;;;;;14.93;98.11;101610.97;4972621;28;20042;-85
2021/08/23 06:32:31;;;;;;;1.20;0.60;;;;;;;15.01;97.51;101604.06;4972478;28;20066;-91
2021/08/23 06:35:05;;;;;;;0.88;0.60;;;;;;;15.07;97.80;101611.13;4978976;28;20058;-87
2021/08/23 06:37:40;;;;;;;1.15;0.65;;;;;;;15.01;98.30;101608.72;4974600;28;20051;-87
2021/08/23 06:40:17;;;;;;;;;;;;;;;15.02;98.06;101621.31;4970788;28;20066;-91
2021/08/23 06:42:46;;;;;;;2.10;0.60;;;;;;;15.06;97.10;101630.63;4973038;28;19922;-87
2021/08/23 06:45:24;;;;;;;1.05;0.60;;;;;;;15.19;97.09;101627.22;4975452;28;20132;-87
2021/08/23 06:47:58;;;;;;;0.75;0.60;;;;;;;15.23;97.03;101628.28;4969999;28;20055;-86
2021/08/23 06:50:27;;;;;;;1.00;0.60;;;;;;;15.33;95.55;101630.09;4968006;28;20142;-87
2021/08/23 06:52:56;;;;;;;1.05;0.50;;;;;;;15.29;95.24;101640.00;4991671;28;20139;-87
2021/08/23 06:55:25;;;;;;;1.00;0.70;;;;;;;15.28;96.36;101647.41;4974774;28;20055;-88
2021/08/23 06:57:54;;;;;;;0.50;0.50;;;;;;;15.35;95.90;101646.28;4969805;28;20059;-86
2021/08/23 07:00:24;;;;;;;1.05;0.60;;;;;;;15.34;95.38;101645.44;4980283;28;20507;-87
2021/08/23 07:03:25;;;;;;;1.38;0.60;;;;;;;15.49;94.57;101652.69;4974514;28;20062;-87
2021/08/23 07:05:53;;;;;;;0.43;0.43;;;;;;;15.52;94.11;101645.81;4969207;28;20057;-87
2021/08/23 07:08:26;;;;;;;0.57;0.50;;;;;;;15.60;96.49;101665.22;4986627;28;20420;-87
2021/08/23 07:11:01;;;;;;;0.63;0.50;;;;;;;15.50;97.30;101659.84;4977425;28;20053;-86
2021/08/23 07:13:35;;;;;;;0.30;0.30;;;;;;;15.68;95.64;101650.06;4984607;28;20054;-87
2021/08/23 07:16:06;;;;;;;1.33;0.60;;;;;;;15.89;96.11;101661.66;4977276;28;20057;-87
2021/08/23 07:18:40;;;;;;;1.95;0.60;;;;;;;15.77;92.00;101655.72;4973842;28;20055;-86
2021/08/23 07:21:13;;;;;;;0.63;0.50;;;;;;;15.70;92.51;101667.06;4983588;28;20047;-86
2021/08/23 07:23:51;;;;;;;0.50;0.50;;;;;;;15.61;91.81;101646.84;4987322;28;20972;-87
2021/08/23 07:26:24;;;;;;;0.77;0.60;;;;;;;15.68;93.14;101680.22;4969972;28;20069;-87
2021/08/23 07:32:23;;;;;;;0.63;0.50;;;;;;;15.78;91.99;101677.41;4946899;23;20074;-88
2021/08/23 07:34:56;;;;;;;0.38;0.38;;;;;;;16.11;90.15;101682.28;4882284;29;20056;-87
2021/08/23 07:37:32;;;;;;;0.73;0.40;;;;;;;16.02;87.51;101686.75;4884299;29;20061;-85
2021/08/23 07:40:07;;;;;;;0.83;0.53;;;;;;;15.98;90.37;101681.06;4899463;29;20063;-85
2021/08/23 07:42:40;;;;;;;1.15;0.60;;;;;;;16.07;86.33;101684.78;4886760;29;20313;-86
2021/08/23 07:45:16;;;;;;;0.40;0.40;;;;;;;15.98;89.31;101687.34;4898892;29;20802;-86
2021/08/23 07:47:51;;;;;;;2.17;0.43;;;;;;;16.01;87.76;101685.97;4899632;29;20060;-86
2021/08/23 07:50:26;;;;;;;0.65;0.47;;;;;;;16.04;87.01;101684.56;4882075;29;20103;-86
2021/08/23 07:52:59;;;;;;;0.40;0.40;;;;;;;16.18;89.41;101690.16;4882910;29;20793;-87
2021/08/23 07:55:33;;;;;;;0.77;0.50;;;;;;;16.24;83.91;101688.97;4885045;29;20494;-86
2021/08/23 07:58:07;;;;;;;0.93;0.55;;;;;;;16.33;84.98;101696.25;4884433;29;20059;-87
2021/08/23 08:00:41;;;;;;;0.30;0.30;;;;;;;16.32;84.99;101696.56;4900325;29;20064;-86
2021/08/23 08:03:15;;;;;;;1.58;0.65;;;;;;;16.51;85.07;101701.28;4899888;29;20076;-90
2021/08/23 08:05:50;;;;;;;0.82;0.50;;;;;;;16.29;85.32;101694.41;4881510;29;20060;-86
2021/08/23 08:08:23;;;;;;;0.63;0.40;;;;;;;16.45;82.82;101706.84;4886770;29;20060;-86
2021/08/23 08:10:57;;;;;;;1.33;0.43;;;;;;;16.39;81.76;101713.53;4883365;29;20057;-84
2021/08/23 08:13:30;;;;;;;0.68;0.40;;;;;;;16.39;83.26;101707.19;4887187;29;20068;-86
2021/08/23 08:16:04;;;;;;;1.45;0.63;;;;;;;16.54;84.25;101714.44;4881249;29;20099;-84
2021/08/23 08:18:34;;;;;;;2.30;0.50;;;;;;;16.52;85.71;101708.41;4895077;29;20627;-85
2021/08/23 08:21:07;;;;;;;0.65;0.40;;;;;;;16.50;83.91;101716.94;4881503;29;21341;-86
2021/08/23 08:23:42;;;;;;;0.65;0.40;;;;;;;16.48;79.86;101710.94;4883047;29;20489;-86
2021/08/23 08:26:15;;;;;;;1.00;0.60;;;;;;;16.62;81.65;101722.00;4899272;29;20053;-85
2021/08/23 08:28:44;;;;;;;0.82;0.50;;;;;;;16.54;81.99;101696.00;4896596;29;20063;-86
2021/08/23 08:31:12;;;;;;;0.90;0.40;;;;;;;16.96;83.05;101721.03;4881365;29;20052;-86
2021/08/23 08:33:45;;;;;;;0.50;0.47;;;;;;;16.83;82.05;101728.03;4879899;29;20065;-85
2021/08/23 08:36:21;;;;;;;0.90;0.50;;;;;;;16.79;78.56;101736.09;4881996;29;20060;-86
2021/08/23 08:38:49;;;;;;;0.52;0.38;;;;;;;16.82;81.06;101742.88;4880800;29;20049;-85
2021/08/23 08:41:18;;;;;;;4.32;2.80;;;;;;;16.98;78.58;101724.28;4878704;29;20061;-85
2021/08/23 08:43:47;;;;;;;0.50;0.50;;;;;;;16.82;80.19;101738.22;4894720;29;20145;-84
2021/08/23 08:46:20;;;;;;;0.85;0.50;;;;;;;16.87;76.79;101722.78;4900244;29;20048;-85
2021/08/23 08:48:57;;;;;;;1.00;0.43;;;;;;;16.97;78.62;101731.72;4899990;29;20406;-87
2021/08/23 08:51:31;;;;;;;0.40;0.40;;;;;;;16.96;75.47;101734.78;4894805;29;20064;-86
2021/08/23 08:54:00;;;;;;;0.57;0.45;;;;;;;16.65;78.41;101691.19;4898542;29;20060;-85
2021/08/23 08:56:31;;;;;;;0.45;0.40;;;;;;;17.07;77.04;101705.16;4875230;29;20067;-85
2021/08/23 08:59:01;;;;;;;0.52;0.50;;;;;;;17.06;77.79;101709.88;4863840;29;20056;-85
2021/08/23 09:01:36;;;;;;;0.43;0.43;;;;;;;17.12;74.58;101707.84;4889566;29;20061;-86
2021/08/23 09:04:35;;;;;;;0.40;0.40;;;;;;;17.26;74.87;101751.91;4889527;29;20064;-85
2021/08/23 09:07:14;;;;;;;0.65;0.40;;;;;;;17.24;76.20;101732.16;4883499;29;20068;-86
2021/08/23 09:09:50;;;;;;;0.57;0.40;;;;;;;17.12;75.96;101718.84;4891946;29;20067;-87
2021/08/23 09:12:23;;;;;;;0.63;0.40;;;;;;;16.99;75.67;101703.94;4890318;29;20053;-87
2021/08/23 09:15:29;;;;;;;2.97;1.77;;;;;;;17.53;74.48;101748.47;4893518;29;20064;-88
2021/08/23 09:18:28;;;;;;;0.98;0.40;;;;;;;17.60;75.84;101757.13;4890818;29;20084;-86
2021/08/23 09:21:05;;;;;;;0.80;0.50;;;;;;;17.64;73.42;101746.34;4897387;29;20048;-86
2021/08/23 09:23:35;;;;;;;1.30;0.43;;;;;;;17.75;72.97;101747.81;4880739;29;20061;-87
2021/08/23 09:26:11;;;;;;;1.15;0.45;;;;;;;17.70;71.60;101752.59;4892362;29;20465;-88
2021/08/23 09:28:43;;;;;;;0.52;0.40;;;;;;;17.71;73.23;101756.97;4899337;29;20177;-88
2021/08/23 09:31:12;;;;;;;0.52;0.50;;;;;;;17.94;74.04;101763.47;4882625;29;20060;-89
2021/08/23 09:33:48;;;;;;;0.50;0.40;;;;;;;17.81;72.18;101746.56;4886377;29;20049;-87
2021/08/23 09:36:22;;;;;;;0.73;0.40;;;;;;;17.99;72.97;101741.34;4879537;29;20072;-88
2021/08/23 09:39:01;;;;;;;0.50;0.50;;;;;;;18.20;74.79;101758.28;4882090;29;20061;-88
2021/08/23 09:41:30;;;;;;;0.40;0.40;;;;;;;17.97;68.82;101758.16;4879659;29;20076;-87
2021/08/23 09:44:05;;;;;;;1.48;0.40;;;;;;;17.98;70.18;101761.72;4877061;29;20072;-87
2021/08/23 09:46:39;;;;;;;0.68;0.40;;;;;;;18.03;70.36;101756.13;4874667;29;20065;-86
2021/08/23 09:49:10;;;;;;;1.08;0.50;;;;;;;18.41;72.31;101752.38;4894490;29;20064;-87
2021/08/23 09:51:47;;;;;;;1.20;0.52;;;;;;;18.35;68.50;101746.97;4876559;29;20056;-88
2021/08/23 09:54:17;;;;;;;0.63;0.35;;;;;;;18.02;69.39;101760.00;4897510;29;20065;-87
2021/08/23 09:56:53;;;;;;;0.55;0.40;;;;;;;18.27;70.12;101752.38;4880847;29;20057;-87
2021/08/23 09:59:23;;;;;;;0.40;0.40;;;;;;;18.56;67.70;101751.25;4869100;29;20052;-88
2021/08/23 10:01:54;;;;;;;0.30;0.30;;;;;;;18.34;69.75;101747.28;4890186;29;20056;-87
2021/08/23 10:04:23;;;;;;;0.30;0.30;;;;;;;18.69;67.69;101755.94;4881174;29;20056;-88
2021/08/23 10:06:54;;;;;;;0.47;0.47;;;;;;;18.95;67.97;101758.16;4881349;29;20072;-89
2021/08/23 10:09:29;;;;;;;0.60;0.40;;;;;;;18.95;66.38;101750.69;4896272;29;20056;-88
2021/08/23 10:12:02;;;;;;;0.80;0.38;;;;;;;18.86;67.28;101766.31;4876367;29;20473;-86
2021/08/23 10:14:35;;;;;;;0.63;0.40;;;;;;;18.76;69.93;101767.34;4880361;29;20063;-89
2021/08/23 10:17:06;;;;;;;0.40;0.40;;;;;;;18.57;70.12;101756.44;4893126;29;20052;-87
2021/08/23 10:19:41;;;;;;;0.50;0.40;;;;;;;18.38;70.54;101772.28;4895609;29;20060;-88
2021/08/23 10:22:13;;;;;;;0.50;0.35;;;;;;;18.09;70.78;101779.72;4882247;29;20060;-87
2021/08/23 10:24:42;;;;;;;0.38;0.38;;;;;;;17.97;70.67;101776.66;4880719;29;20060;-87
2021/08/23 10:27:22;;;;;;;0.80;0.40;;;;;;;18.12;71.29;101779.09;4882229;29;20048;-84
2021/08/23 10:30:02;;;;;;;0.60;0.60;;;;;;;18.35;71.31;101780.06;4891559;29;20056;-85
2021/08/23 10:32:36;;;;;;;0.60;0.60;;;;;;;18.58;69.52;101777.38;4875236;29;20079;-83
2021/08/23 10:35:16;;;;;;;0.30;0.30;;;;;;;18.58;69.97;101777.38;4890805;29;20064;-86
2021/08/23 10:37:52;;;;;;;0.65;0.40;;;;;;;18.46;68.28;101772.41;4897864;29;20068;-83
2021/08/23 10:40:26;;;;;;;1.30;0.40;;;;;;;18.38;67.11;101777.78;4892608;29;20048;-86
2021/08/23 10:42:54;;;;;;;1.58;0.40;;;;;;;18.57;68.79;101778.50;4897891;29;20055;-86
2021/08/23 10:45:39;;;;;;;0.40;0.30;;;;;;;18.78;66.35;101773.38;4879593;29;20064;-85
2021/08/23 10:48:16;;;;;;;2.08;0.50;;;;;;;18.93;64.82;101775.00;4876980;29;20068;-86
2021/08/23 10:51:00;;;;;;;0.85;0.40;;;;;;;18.43;66.92;101792.28;4894146;29;20064;-86
2021/08/23 10:53:40;;;;;;;0.40;0.40;;;;;;;17.97;65.05;101725.13;4876800;29;20056;-86
2021/08/23 10:56:21;;;;;;;1.77;1.10;;;;;;;18.06;66.96;101761.03;4872679;29;20072;-85
2021/08/23 10:58:51;;;;;;;4.35;1.27;;;;;;;17.96;67.40;101747.47;4846564;29;20509;-85
2021/08/23 11:01:24;;;;;;;0.32;0.32;;;;;;;17.58;66.75;101729.13;4887651;29;20170;-86
2021/08/23 11:04:04;;;;;;;0.40;0.40;;;;;;;17.48;68.60;101729.28;4879553;29;20067;-85
2021/08/23 11:06:37;;;;;;;1.17;0.50;;;;;;;17.49;69.38;101731.72;4879796;29;20060;-86
2021/08/23 11:09:11;;;;;;;1.05;0.40;;;;;;;17.69;68.46;101757.28;4899801;29;20065;-85
2021/08/23 11:11:43;;;;;;;0.40;0.40;;;;;;;17.92;63.25;101766.53;4891735;29;20064;-86
2021/08/23 11:14:21;;;;;;;0.45;0.40;;;;;;;18.19;65.67;101749.22;4874729;29;20063;-87
2021/08/23 11:16:54;;;;;;;0.40;0.40;;;;;;;18.53;62.20;101750.75;4885785;29;20060;-88
2021/08/23 11:19:24;;;;;;;0.70;0.40;;;;;;;18.87;67.12;101759.66;4895396;29;20061;-85
2021/08/23 11:21:57;;;;;;;0.30;0.30;;;;;;;18.92;66.64;101737.53;4889269;29;20060;-86
2021/08/23 11:24:32;;;;;;;0.47;0.35;;;;;;;19.15;62.73;101746.63;4892000;29;20064;-85
2021/08/23 11:27:04;;;;;;;0.45;0.30;;;;;;;18.74;61.47;101735.69;4889851;29;20068;-86
2021/08/23 11:29:39;;;;;;;0.40;0.40;;;;;;;18.53;62.54;101736.13;4896914;29;20068;-92
2021/08/23 11:32:09;;;;;;;0.40;0.40;;;;;;;18.69;64.61;101780.75;4876716;29;20048;-84
2021/08/23 11:34:45;;;;;;;0.45;0.45;;;;;;;18.74;63.36;101794.44;4893341;29;20056;-84
2021/08/23 11:37:13;;;;;;;0.45;0.40;;;;;;;18.86;62.57;101791.13;4891086;29;20053;-85
2021/08/23 11:39:50;;;;;;;0.60;0.30;;;;;;;18.80;60.94;101784.09;4878933;29;20057;-84
2021/08/23 11:42:25;;;;;;;0.60;0.40;;;;;;;19.06;62.52;101769.75;4869423;29;20057;-85
2021/08/23 11:44:59;;;;;;;0.35;0.30;;;;;;;19.63;61.59;101786.59;4877632;29;20312;-85
2021/08/23 11:47:32;;;;;;;0.30;0.30;;;;;;;19.83;61.93;101790.84;4872882;29;20064;-84
2021/08/23 11:50:07;;;;;;;0.30;0.30;;;;;;;19.46;62.47;101789.22;4875546;29;20048;-86
2021/08/23 11:52:35;;;;;;;0.60;0.50;;;;;;;19.13;62.97;101790.28;4892162;29;20072;-84
2021/08/23 11:55:23;;;;;;;0.35;0.35;;;;;;;19.12;63.54;101787.84;4889272;29;20725;-85